Terminal Aerodrome Forecast
Issued by NWS Wilmington, OH

Current Version | Previous Version | Text Only | Print | Product List | Glossary Off
Versions: 1 2 3 4 5 6 7 8 9 10 11 12 13 14 15 16 17 18 19 20 21 22 23 24 25

000
FTUS41 KILN 240200 AAB
TAFILN
TAF AMD
KILN 240214Z 2402/2424 14007KT 6SM BR OVC003
      TEMPO 2402/2404 5SM BR OVC025
     FM240400 12008KT 5SM BR VCSH OVC025
     FM241200 14010KT 5SM -SHRA BR OVC008
     FM241400 17016G23KT P6SM VCSH OVC012
     FM241800 23022G34KT P6SM VCSH BKN015
     FM242100 25025G40KT P6SM VCSH BKN020=

USA.gov is the U.S. government's official web portal to all federal, state and local government web resources and services.